Time;durP1;ratioP1;P1;durP2;ratioP2;P2;SDS_P1;SDS_P2;PMS_P1;PMS_P2;Temp;Humidity;BMP_temperature;BMP_pressure;BME280_temperature;BME280_humidity;BME280_pressure;Samples;Min_cycle;Max_cycle;Signal;HPM_P1;HPM_P2
2021/08/14 00:00:18;;;;;;;11.27;5.05;;;;;;;16.75;74.85;101823.28;5155676;27;20517;-82
2021/08/14 00:02:44;;;;;;;15.32;5.60;;;;;;;16.84;75.08;101835.16;5156210;27;20047;-82
2021/08/14 00:05:10;;;;;;;12.23;4.57;;;;;;;16.84;74.92;101829.88;5157566;27;20047;-83
2021/08/14 00:07:36;;;;;;;14.05;5.00;;;;;;;16.82;75.34;101837.88;5157550;27;20043;-83
2021/08/14 00:10:05;;;;;;;12.38;4.68;;;;;;;16.61;75.56;101823.88;5157551;27;20050;-82
2021/08/14 00:12:31;;;;;;;13.77;4.47;;;;;;;16.69;75.81;101834.94;5157489;27;20483;-84
2021/08/14 00:14:57;;;;;;;12.60;5.53;;;;;;;16.62;75.97;101842.28;5156359;27;20404;-83
2021/08/14 00:17:23;;;;;;;12.30;5.00;;;;;;;16.65;75.93;101839.50;5156565;27;20043;-82
2021/08/14 00:19:50;;;;;;;11.07;4.50;;;;;;;16.74;75.69;101842.66;5157800;27;20045;-82
2021/08/14 00:22:16;;;;;;;11.30;4.63;;;;;;;16.85;75.05;101836.88;5157401;27;20444;-81
2021/08/14 00:24:42;;;;;;;12.85;4.90;;;;;;;16.71;75.00;101795.31;5156161;27;20078;-83
2021/08/14 00:27:08;;;;;;;14.80;4.95;;;;;;;16.83;75.04;101826.38;5156311;27;20493;-82
2021/08/14 00:29:34;;;;;;;14.10;4.55;;;;;;;16.67;75.05;101805.16;5138292;27;20054;-83
2021/08/14 00:32:01;;;;;;;10.82;4.53;;;;;;;16.65;74.94;101802.59;5157390;27;20118;-83
2021/08/14 00:34:27;;;;;;;9.90;4.50;;;;;;;16.53;75.09;101784.72;5156488;27;20042;-83
2021/08/14 00:36:53;;;;;;;10.00;4.80;;;;;;;16.83;75.18;101829.03;5156435;27;20038;-83
2021/08/14 00:39:19;;;;;;;12.70;4.95;;;;;;;16.67;75.51;101799.88;5154177;27;20043;-82
2021/08/14 00:41:50;;;;;;;11.20;4.65;;;;;;;16.84;75.32;101811.44;5156779;27;20134;-82
2021/08/14 00:44:18;;;;;;;10.75;4.68;;;;;;;16.82;75.20;101808.88;5155970;27;20046;-82
2021/08/14 00:46:45;;;;;;;10.60;4.28;;;;;;;16.76;75.26;101799.47;5156115;27;20050;-83
2021/08/14 00:49:11;;;;;;;7.63;4.38;;;;;;;16.87;74.68;101811.28;5156287;27;20061;-82
2021/08/14 00:51:39;;;;;;;9.80;4.40;;;;;;;16.79;74.99;101803.72;5156829;27;20467;-84
2021/08/14 00:54:05;;;;;;;12.38;4.82;;;;;;;16.67;75.60;101793.75;5150875;27;20092;-82
2021/08/14 00:56:31;;;;;;;10.32;4.40;;;;;;;16.76;75.74;101809.13;5145614;27;20051;-82
2021/08/14 00:58:58;;;;;;;10.07;4.20;;;;;;;16.57;76.70;101794.16;5133061;27;20042;-82
2021/08/14 01:01:25;;;;;;;10.20;4.75;;;;;;;16.38;77.10;101767.81;5155308;27;20042;-81
2021/08/14 01:03:53;;;;;;;10.20;4.47;;;;;;;16.56;77.15;101800.38;5157050;27;20410;-82
2021/08/14 01:06:20;;;;;;;13.93;4.68;;;;;;;16.52;77.77;101797.97;5147064;27;20061;-81
2021/08/14 01:08:47;;;;;;;14.60;5.18;;;;;;;16.38;77.98;101773.09;5151577;27;20047;-82
2021/08/14 01:11:15;;;;;;;11.23;4.82;;;;;;;16.40;77.97;101765.13;5154055;27;20414;-81
2021/08/14 01:13:42;;;;;;;12.65;4.90;;;;;;;16.57;78.24;101794.16;5154554;27;20050;-81
2021/08/14 01:16:09;;;;;;;12.68;5.07;;;;;;;16.59;78.35;101792.34;5155341;27;20046;-81
2021/08/14 01:18:39;;;;;;;13.05;4.80;;;;;;;16.54;78.51;101780.28;5155508;27;20065;-81
2021/08/14 01:21:05;;;;;;;11.38;4.93;;;;;;;16.57;78.74;101791.53;5156041;27;20058;-81
2021/08/14 01:23:32;;;;;;;10.90;4.68;;;;;;;16.59;79.07;101791.50;5153795;27;20051;-81
2021/08/14 01:26:10;;;;;;;11.65;4.55;;;;;;;16.56;79.07;101791.63;5152428;27;20046;-82
2021/08/14 01:28:38;;;;;;;12.85;5.25;;;;;;;16.55;79.51;101790.78;5145925;27;20043;-81
2021/08/14 01:31:06;;;;;;;12.23;4.63;;;;;;;16.55;79.78;101774.09;5155412;27;20051;-82
2021/08/14 01:33:37;;;;;;;14.98;4.78;;;;;;;16.55;80.19;101785.50;5150824;27;20050;-82
2021/08/14 01:36:05;;;;;;;13.73;4.05;;;;;;;16.41;80.23;101769.47;5127152;27;20048;-81
2021/08/14 01:38:31;;;;;;;12.77;4.97;;;;;;;16.47;79.90;101756.84;5145332;27;20050;-82
2021/08/14 01:40:57;;;;;;;11.25;4.75;;;;;;;16.69;79.32;101776.09;5136523;27;20043;-81
2021/08/14 01:43:24;;;;;;;10.18;4.43;;;;;;;16.68;79.62;101783.13;5155163;27;20046;-82
2021/08/14 01:45:50;;;;;;;14.30;5.20;;;;;;;16.55;80.50;101769.69;5155972;27;20038;-82
2021/08/14 01:48:17;;;;;;;12.10;4.63;;;;;;;16.63;80.74;101782.50;5154571;27;20042;-83
2021/08/14 01:50:43;;;;;;;12.82;5.28;;;;;;;16.57;81.28;101781.00;5154690;27;20505;-83
2021/08/14 01:53:10;;;;;;;11.98;4.35;;;;;;;16.42;81.95;101761.47;5154884;27;20566;-83
2021/08/14 01:55:37;;;;;;;10.27;4.57;;;;;;;16.47;81.61;101771.81;5152663;27;20056;-82
2021/08/14 01:58:04;;;;;;;11.18;4.45;;;;;;;16.48;82.19;101766.47;5153806;27;20517;-82
2021/08/14 02:00:30;;;;;;;10.30;4.22;;;;;;;16.23;82.66;101736.91;5153334;27;20395;-82
2021/08/14 02:02:56;;;;;;;12.43;4.78;;;;;;;16.48;82.71;101766.47;5154526;27;20043;-82
2021/08/14 02:05:23;;;;;;;11.27;5.22;;;;;;;16.44;82.89;101769.31;5155346;27;20459;-82
2021/08/14 02:07:49;;;;;;;8.20;4.20;;;;;;;16.43;82.68;101752.66;5155591;27;20038;-82
2021/08/14 02:10:15;;;;;;;11.93;4.45;;;;;;;16.38;82.87;101743.25;5137199;27;20046;-83
2021/08/14 02:12:41;;;;;;;12.73;5.18;;;;;;;16.27;82.87;101741.97;5153988;27;20047;-83
2021/08/14 02:15:09;;;;;;;11.63;4.60;;;;;;;16.46;82.45;101759.56;5154834;27;20050;-83
2021/08/14 02:17:37;;;;;;;11.02;4.43;;;;;;;16.34;82.39;101745.16;5126484;28;20131;-82
2021/08/14 02:20:05;;;;;;;10.32;4.35;;;;;;;16.47;82.48;101764.75;5133779;27;20380;-82
2021/08/14 02:22:32;;;;;;;11.95;4.85;;;;;;;16.47;82.44;101759.47;5154807;27;20452;-82
2021/08/14 02:24:58;;;;;;;10.18;5.13;;;;;;;16.54;82.22;101762.69;5154571;27;20081;-82
2021/08/14 02:27:24;;;;;;;13.93;4.90;;;;;;;16.57;81.90;101759.91;5136126;27;20039;-82
2021/08/14 02:29:51;;;;;;;13.38;4.72;;;;;;;16.52;81.35;101754.00;5158476;27;20050;-82
2021/08/14 02:32:17;;;;;;;11.43;5.13;;;;;;;16.55;81.28;101756.50;5156665;27;20051;-82
2021/08/14 02:34:43;;;;;;;11.68;4.63;;;;;;;16.47;81.35;101754.22;5159804;27;20137;-82
2021/08/14 02:37:08;;;;;;;12.00;4.90;;;;;;;16.53;81.27;101753.06;5148368;27;20040;-83
2021/08/14 02:39:35;;;;;;;13.23;4.40;;;;;;;16.55;80.94;101753.88;5145890;27;20134;-81
2021/08/14 02:42:01;;;;;;;9.88;5.05;;;;;;;16.61;80.66;101747.44;5171990;27;20039;-79
2021/08/14 02:44:27;;;;;;;12.82;5.25;;;;;;;16.58;80.85;101747.59;5179623;27;20046;-80
2021/08/14 02:46:53;;;;;;;13.38;5.13;;;;;;;16.52;80.57;101727.66;5158966;27;20494;-81
2021/08/14 02:49:19;;;;;;;9.15;4.30;;;;;;;16.64;80.45;101739.41;5158734;27;20043;-83
2021/08/14 02:51:45;;;;;;;11.18;5.07;;;;;;;16.59;80.29;101734.34;5158807;27;20047;-81
2021/08/14 02:54:12;;;;;;;10.45;4.68;;;;;;;16.65;80.21;101736.69;5157137;27;20491;-81
2021/08/14 02:56:39;;;;;;;11.40;4.47;;;;;;;16.79;79.90;101751.00;5160832;27;20065;-83
2021/08/14 02:59:06;;;;;;;11.95;4.60;;;;;;;16.74;79.60;101742.47;5142593;27;20122;-84
2021/08/14 03:01:31;;;;;;;11.43;5.22;;;;;;;16.64;80.10;101745.50;5164195;27;20069;-84
2021/08/14 03:03:57;;;;;;;11.52;4.40;;;;;;;16.45;79.94;101715.69;5151726;27;20046;-82
2021/08/14 03:06:25;;;;;;;12.48;5.60;;;;;;;16.62;79.63;101741.25;5161293;27;20049;-83
2021/08/14 03:08:51;;;;;;;11.18;4.25;;;;;;;16.69;79.50;101742.66;5180808;27;20026;-81
2021/08/14 03:11:17;;;;;;;7.47;4.13;;;;;;;16.57;79.03;101708.97;5180481;27;20031;-82
2021/08/14 03:13:43;;;;;;;11.85;4.55;;;;;;;16.74;78.56;101734.53;5179420;27;20050;-80
2021/08/14 03:16:09;;;;;;;12.70;4.82;;;;;;;16.69;78.49;101720.75;5162543;27;20091;-84
2021/08/14 03:18:35;;;;;;;11.00;4.47;;;;;;;16.60;78.60;101716.72;5158895;27;20077;-81
2021/08/14 03:21:01;;;;;;;11.00;4.68;;;;;;;16.67;78.67;101746.31;5159333;27;20051;-84
2021/08/14 03:23:27;;;;;;;11.48;5.03;;;;;;;16.67;78.87;101733.97;5158414;27;20043;-84
2021/08/14 03:25:53;;;;;;;11.68;4.75;;;;;;;16.67;78.69;101735.75;5157861;27;20091;-81
2021/08/14 03:28:19;;;;;;;12.25;4.90;;;;;;;16.60;78.68;101736.06;5140415;27;20516;-81
2021/08/14 03:30:45;;;;;;;10.73;5.10;;;;;;;16.53;78.75;101734.63;5158218;27;20448;-81
2021/08/14 03:33:11;;;;;;;10.50;4.47;;;;;;;16.45;79.04;101737.63;5139018;27;20118;-84
2021/08/14 03:35:37;;;;;;;9.27;4.78;;;;;;;16.47;79.23;101729.66;5157991;27;20058;-80
2021/08/14 03:38:03;;;;;;;10.50;4.70;;;;;;;16.28;79.27;101709.44;5157525;27;20236;-82
2021/08/14 03:40:29;;;;;;;12.10;4.95;;;;;;;16.30;79.66;101727.78;5157522;27;20046;-82
2021/08/14 03:42:56;;;;;;;10.05;4.25;;;;;;;16.37;79.62;101730.97;5157056;27;20046;-82
2021/08/14 03:45:22;;;;;;;8.82;4.55;;;;;;;16.37;79.38;101721.31;5157331;27;20047;-82
2021/08/14 03:47:48;;;;;;;14.93;4.78;;;;;;;16.43;79.31;101733.34;5156614;27;20050;-82
2021/08/14 03:50:14;;;;;;;12.48;5.00;;;;;;;16.32;79.27;101712.78;5157159;27;20038;-81
2021/08/14 03:52:40;;;;;;;11.70;4.90;;;;;;;16.37;79.42;101723.06;5138732;27;20043;-80
2021/08/14 03:55:07;;;;;;;11.38;4.45;;;;;;;16.31;79.31;101721.59;5138793;27;20043;-81
2021/08/14 03:57:33;;;;;;;11.13;4.60;;;;;;;16.26;79.65;101716.53;5154785;27;20043;-82
2021/08/14 04:00:01;;;;;;;11.77;4.97;;;;;;;16.28;79.69;101716.47;5157080;27;20043;-81
2021/08/14 04:02:27;;;;;;;13.02;5.35;;;;;;;16.29;79.60;101719.00;5137470;27;20038;-80
2021/08/14 04:04:53;;;;;;;11.23;4.95;;;;;;;16.17;79.69;101709.03;5156431;27;20066;-83
2021/08/14 04:07:23;;;;;;;9.80;4.50;;;;;;;16.21;79.75;101712.41;5138321;27;20058;-82
2021/08/14 04:09:49;;;;;;;11.20;4.50;;;;;;;16.18;79.75;101721.28;5156790;27;20035;-82
2021/08/14 04:12:15;;;;;;;11.65;5.00;;;;;;;16.13;79.87;101718.03;5138145;27;20054;-81
2021/08/14 04:14:41;;;;;;;10.15;4.95;;;;;;;16.14;79.92;101711.84;5156804;27;20046;-83
2021/08/14 04:17:07;;;;;;;11.40;5.68;;;;;;;16.13;80.02;101720.66;5156745;27;20140;-83
2021/08/14 04:19:33;;;;;;;14.50;5.53;;;;;;;15.99;80.41;101711.59;5156546;27;20497;-81
2021/08/14 04:22:00;;;;;;;13.10;6.13;;;;;;;15.99;80.37;101724.75;5155334;27;20050;-82
2021/08/14 04:24:28;;;;;;;13.90;4.88;;;;;;;15.93;80.45;101713.63;5137326;27;20051;-80
2021/08/14 04:26:54;;;;;;;12.93;4.80;;;;;;;15.98;80.16;101709.03;5155610;27;20451;-80
2021/08/14 04:29:20;;;;;;;11.98;4.88;;;;;;;16.09;79.99;101725.22;5156008;27;20053;-82
2021/08/14 04:31:46;;;;;;;12.07;5.38;;;;;;;16.13;79.85;101721.50;5156094;27;20452;-82
2021/08/14 04:34:12;;;;;;;9.85;4.50;;;;;;;16.17;79.58;101725.72;5156304;27;20054;-83
2021/08/14 04:36:38;;;;;;;11.07;5.70;;;;;;;16.08;79.42;101702.41;5159893;27;20046;-81
2021/08/14 04:39:04;;;;;;;10.10;4.72;;;;;;;16.26;79.10;101721.81;5164065;27;20046;-81
2021/08/14 04:41:30;;;;;;;12.15;5.22;;;;;;;16.05;79.28;101691.16;5165011;27;20046;-80
2021/08/14 04:43:57;;;;;;;12.65;5.35;;;;;;;16.11;79.69;101712.84;5163096;27;20042;-80
2021/08/14 04:46:23;;;;;;;11.90;4.45;;;;;;;16.05;79.47;101692.03;5164456;27;20042;-80
2021/08/14 04:48:49;;;;;;;11.07;5.20;;;;;;;16.05;79.45;101707.84;5144976;27;20483;-79
2021/08/14 04:51:15;;;;;;;10.98;5.10;;;;;;;16.14;79.39;101717.94;5162696;27;20050;-79
2021/08/14 04:53:42;;;;;;;13.25;5.20;;;;;;;16.04;79.43;101703.50;5155655;27;20046;-81
2021/08/14 04:56:08;;;;;;;10.05;4.75;;;;;;;15.93;79.57;101695.19;5155945;27;20118;-81
2021/08/14 04:58:34;;;;;;;10.77;4.57;;;;;;;15.92;79.62;101690.88;5155586;27;20526;-83
2021/08/14 05:00:59;;;;;;;13.75;4.63;;;;;;;16.06;79.75;101719.22;5156194;27;20050;-83
2021/08/14 05:03:26;;;;;;;10.18;4.63;;;;;;;16.07;79.49;101711.25;5154305;27;20110;-82
2021/08/14 05:05:52;;;;;;;14.82;5.95;;;;;;;16.04;79.63;101702.63;5155255;27;20051;-81
2021/08/14 05:08:23;;;;;;;12.63;4.97;;;;;;;16.02;79.45;101697.44;5155942;27;20050;-84
2021/08/14 05:10:49;;;;;;;14.40;4.90;;;;;;;16.13;79.22;101710.13;5137507;27;20042;-82
2021/08/14 05:13:16;;;;;;;12.00;4.85;;;;;;;15.99;79.30;101677.34;5154718;27;20115;-81
2021/08/14 05:15:42;;;;;;;11.45;5.15;;;;;;;16.12;79.56;101709.25;5137438;27;20042;-81
2021/08/14 05:18:10;;;;;;;12.45;5.60;;;;;;;16.13;79.24;101704.84;5137774;27;20542;-83
2021/08/14 05:20:36;;;;;;;12.73;5.05;;;;;;;16.07;79.58;101695.44;5155490;27;20065;-81
2021/08/14 05:23:02;;;;;;;9.38;4.57;;;;;;;16.20;79.11;101695.75;5155804;27;20042;-80
2021/08/14 05:25:30;;;;;;;11.35;5.40;;;;;;;16.34;78.75;101710.91;5135876;27;20076;-82
2021/08/14 05:27:56;;;;;;;12.50;5.38;;;;;;;16.27;79.11;101718.25;5156198;27;20042;-82
2021/08/14 05:30:22;;;;;;;12.45;4.93;;;;;;;16.22;78.85;101700.94;5120617;27;20091;-84
2021/08/14 05:32:49;;;;;;;14.48;5.65;;;;;;;16.43;78.67;101720.16;5155975;27;20421;-83
2021/08/14 05:35:15;;;;;;;9.73;5.13;;;;;;;16.41;78.47;101711.50;5155498;27;20050;-82
2021/08/14 05:37:41;;;;;;;9.80;4.85;;;;;;;16.32;78.63;101702.25;5136911;27;20047;-83
2021/08/14 05:40:08;;;;;;;11.50;5.68;;;;;;;16.35;78.84;101717.88;5137448;27;20047;-81
2021/08/14 05:42:34;;;;;;;10.85;5.10;;;;;;;16.42;78.60;101719.31;5156331;27;20042;-82
2021/08/14 05:45:01;;;;;;;13.50;5.38;;;;;;;16.22;78.50;101688.63;5155671;27;20054;-81
2021/08/14 05:47:27;;;;;;;9.95;5.00;;;;;;;16.47;78.58;101724.38;5155907;27;20049;-82
2021/08/14 05:49:53;;;;;;;11.85;4.97;;;;;;;16.50;78.02;101726.84;5120030;27;20415;-81
2021/08/14 05:52:21;;;;;;;17.48;6.30;;;;;;;16.59;77.86;101730.88;5155825;27;20050;-83
2021/08/14 05:54:59;;;;;;;12.15;5.32;;;;;;;16.67;77.66;101735.75;5154162;27;20111;-83
2021/08/14 05:57:25;;;;;;;13.27;5.10;;;;;;;16.77;76.88;101726.47;5156191;27;20046;-83
2021/08/14 05:59:51;;;;;;;10.88;5.00;;;;;;;16.97;76.23;101715.00;5154918;27;20126;-83
2021/08/14 06:02:17;;;;;;;10.57;5.32;;;;;;;16.92;75.71;101680.09;5137163;27;20039;-83
2021/08/14 06:04:43;;;;;;;11.52;5.10;;;;;;;17.10;75.38;101712.59;5136498;27;20074;-83
2021/08/14 06:07:10;;;;;;;10.05;4.90;;;;;;;17.33;75.20;101729.09;5137036;27;20046;-83
2021/08/14 06:09:36;;;;;;;13.82;5.40;;;;;;;17.26;75.43;101734.66;5136765;27;20126;-84
2021/08/14 06:12:03;;;;;;;11.10;4.80;;;;;;;17.15;75.57;101723.81;5155030;27;20180;-83
2021/08/14 06:14:29;;;;;;;9.63;5.00;;;;;;;17.08;75.63;101723.25;5153523;27;20046;-83
2021/08/14 06:16:55;;;;;;;8.30;4.70;;;;;;;17.08;75.59;101714.50;5154054;27;20043;-83
2021/08/14 06:19:22;;;;;;;11.57;5.10;;;;;;;17.28;74.93;101729.31;5153948;27;20049;-83
2021/08/14 06:21:48;;;;;;;13.93;5.93;;;;;;;17.36;74.64;101739.50;5153882;27;20088;-83
2021/08/14 06:24:14;;;;;;;14.57;5.90;;;;;;;17.18;74.84;101731.56;5136559;27;20494;-83
2021/08/14 06:26:42;;;;;;;13.45;6.53;;;;;;;17.35;74.36;101743.06;5153021;27;20051;-84
2021/08/14 06:29:11;;;;;;;12.68;6.25;;;;;;;17.25;74.51;101732.13;5153877;27;20046;-83
2021/08/14 06:31:41;;;;;;;10.32;5.30;;;;;;;17.31;74.62;101738.84;5154782;27;20043;-83
2021/08/14 06:34:07;;;;;;;13.32;5.93;;;;;;;17.44;74.13;101746.09;5155326;27;20441;-83
2021/08/14 06:36:33;;;;;;;13.60;5.93;;;;;;;17.53;73.79;101733.38;5155900;27;20070;-82
2021/08/14 06:38:59;;;;;;;13.27;5.57;;;;;;;17.75;73.20;101738.41;5157149;27;20440;-83
2021/08/14 06:41:25;;;;;;;11.25;4.97;;;;;;;17.75;72.70;101725.19;5156830;27;20495;-83
2021/08/14 06:43:51;;;;;;;11.27;5.18;;;;;;;17.80;72.25;101725.78;5171621;27;20038;-83
2021/08/14 06:46:19;;;;;;;10.38;5.10;;;;;;;17.85;72.06;101730.84;5176812;27;20033;-83
2021/08/14 06:48:45;;;;;;;12.98;5.38;;;;;;;17.95;72.17;101739.16;5139874;28;20054;-83
2021/08/14 06:51:13;;;;;;;10.65;5.07;;;;;;;17.87;71.86;101721.03;5130422;27;20043;-83
2021/08/14 06:53:40;;;;;;;12.85;5.50;;;;;;;17.78;72.56;101732.94;5154562;27;20046;-83
2021/08/14 06:56:06;;;;;;;12.63;5.68;;;;;;;17.96;72.14;101731.16;5153440;27;20043;-83
2021/08/14 06:58:34;;;;;;;9.02;4.93;;;;;;;18.06;71.65;101734.16;5154039;27;20050;-83
2021/08/14 07:01:01;;;;;;;11.68;5.53;;;;;;;18.25;71.13;101731.41;5154340;27;20407;-83
2021/08/14 07:03:27;;;;;;;13.75;5.10;;;;;;;18.13;70.97;101706.47;5163308;27;20043;-83
2021/08/14 07:05:55;;;;;;;11.20;5.07;;;;;;;18.26;71.02;101719.03;5178903;27;20165;-82
2021/08/14 07:08:21;;;;;;;14.25;5.70;;;;;;;18.13;70.74;101719.69;5179141;27;20047;-83
2021/08/14 07:10:47;;;;;;;13.27;5.72;;;;;;;17.92;71.31;101703.19;5175979;27;20038;-84
2021/08/14 07:13:13;;;;;;;12.45;5.90;;;;;;;18.08;71.32;101727.84;5177395;27;20394;-82
2021/08/14 07:15:39;;;;;;;11.48;5.57;;;;;;;18.03;71.54;101732.53;5170611;27;20049;-82
2021/08/14 07:18:06;;;;;;;12.13;5.65;;;;;;;17.94;71.75;101711.84;5158143;27;20055;-83
2021/08/14 07:20:32;;;;;;;8.73;4.97;;;;;;;17.89;72.44;101719.16;5138738;27;20050;-83
2021/08/14 07:22:58;;;;;;;10.18;5.07;;;;;;;17.87;73.14;101737.75;5157831;27;20051;-84
2021/08/14 07:25:24;;;;;;;8.75;4.70;;;;;;;17.69;73.55;101714.94;5156140;27;20043;-83
2021/08/14 07:27:51;;;;;;;8.23;4.10;;;;;;;17.86;73.43;101729.91;5157122;27;20507;-82
2021/08/14 07:30:18;;;;;;;8.02;4.07;;;;;;;17.96;73.38;101735.59;5156916;27;20046;-83
2021/08/14 07:32:44;;;;;;;6.78;3.95;;;;;;;17.97;73.78;101738.16;5157887;27;20061;-83
2021/08/14 07:35:11;;;;;;;7.72;4.20;;;;;;;17.95;73.68;101713.59;5157407;27;20371;-83
2021/08/14 07:37:48;;;;;;;8.20;3.50;;;;;;;18.15;73.12;101740.72;5139254;27;20050;-83
2021/08/14 07:40:22;;;;;;;7.40;3.83;;;;;;;18.14;73.30;101741.66;5144896;27;20046;-83
2021/08/14 07:42:48;;;;;;;8.40;4.10;;;;;;;18.21;72.84;101743.91;5157641;27;20039;-83
2021/08/14 07:45:17;;;;;;;8.35;4.00;;;;;;;18.21;72.66;101721.91;5139350;27;20172;-83
2021/08/14 07:47:48;;;;;;;7.47;4.13;;;;;;;18.19;72.67;101727.28;5158663;27;20039;-81
2021/08/14 07:50:18;;;;;;;;;;;;;;;18.20;72.50;101746.63;5139571;27;20102;-83
2021/08/14 07:52:44;;;;;;;6.93;4.03;;;;;;;18.23;72.83;101747.31;5136862;27;19966;-83
2021/08/14 07:55:11;;;;;;;8.90;4.43;;;;;;;18.17;72.50;101708.00;5156323;27;20049;-83
2021/08/14 07:57:39;;;;;;;7.63;3.97;;;;;;;18.51;71.39;101714.09;5139380;27;20114;-84
2021/08/14 08:00:15;;;;;;;10.45;4.32;;;;;;;18.84;70.39;101744.03;5157621;27;20047;-83
2021/08/14 08:02:42;;;;;;;8.23;4.60;;;;;;;18.96;69.40;101731.94;5157005;27;20039;-83
2021/08/14 08:05:10;;;;;;;9.70;4.97;;;;;;;18.87;68.77;101728.84;5155368;27;20049;-83
2021/08/14 08:07:40;;;;;;;10.45;4.90;;;;;;;19.09;68.85;101732.94;5157316;27;20046;-81
2021/08/14 08:10:09;;;;;;;8.90;5.10;;;;;;;19.30;68.20;101729.97;5157228;27;20066;-85
2021/08/14 08:12:35;;;;;;;11.73;5.50;;;;;;;19.33;67.65;101727.13;5157550;27;20046;-85
2021/08/14 08:15:03;;;;;;;11.68;5.07;;;;;;;19.36;67.24;101705.78;5158254;27;20137;-85
2021/08/14 08:17:29;;;;;;;13.95;5.82;;;;;;;19.64;66.39;101704.97;5143404;27;20057;-82
2021/08/14 08:19:55;;;;;;;9.93;4.85;;;;;;;19.95;65.53;101731.44;5167872;27;20438;-83
2021/08/14 08:22:21;;;;;;;14.73;6.32;;;;;;;19.96;65.87;101723.38;5149212;27;20039;-83
2021/08/14 08:24:48;;;;;;;12.90;6.00;;;;;;;19.75;66.07;101732.59;5149723;27;20050;-83
2021/08/14 08:27:14;;;;;;;12.73;6.10;;;;;;;19.80;66.04;101730.56;5158119;27;20095;-83
2021/08/14 08:29:40;;;;;;;14.40;5.60;;;;;;;19.75;65.99;101717.56;5133602;27;20038;-84
2021/08/14 08:32:07;;;;;;;11.05;5.10;;;;;;;19.62;65.45;101709.50;5135840;27;20525;-83
2021/08/14 08:34:33;;;;;;;9.95;5.35;;;;;;;19.44;66.55;101739.75;5147439;27;20046;-84
2021/08/14 08:37:01;;;;;;;10.20;5.30;;;;;;;19.46;66.46;101724.63;5165620;27;20042;-84
2021/08/14 08:39:28;;;;;;;9.65;5.53;;;;;;;19.76;66.21;101732.53;5176299;27;20165;-84
2021/08/14 08:41:56;;;;;;;12.35;5.97;;;;;;;19.99;65.52;101725.84;5178474;27;20043;-83
2021/08/14 08:44:24;;;;;;;12.57;5.57;;;;;;;19.97;64.67;101721.59;5176678;27;20091;-83
2021/08/14 08:46:51;;;;;;;12.27;5.97;;;;;;;20.05;65.25;101737.03;5176890;27;20041;-83
2021/08/14 08:49:23;;;;;;;12.65;6.03;;;;;;;19.99;64.75;101732.94;5157867;27;20047;-83
2021/08/14 08:51:50;;;;;;;10.85;5.47;;;;;;;19.77;65.15;101710.38;5155340;27;20555;-83
2021/08/14 08:54:17;;;;;;;11.43;5.15;;;;;;;19.74;64.79;101691.16;5136774;27;20047;-83
2021/08/14 08:56:43;;;;;;;11.35;5.55;;;;;;;19.95;64.56;101734.09;5148706;27;20043;-83
2021/08/14 08:59:11;;;;;;;8.82;5.15;;;;;;;20.12;64.15;101725.94;5155237;27;20042;-84
2021/08/14 09:01:38;;;;;;;13.23;6.25;;;;;;;20.11;63.69;101737.47;5155519;27;20043;-83
2021/08/14 09:04:24;;;;;;;11.05;5.20;;;;;;;20.34;63.32;101724.59;5152890;27;20091;-84
2021/08/14 09:06:51;;;;;;;10.20;5.60;;;;;;;20.44;62.96;101731.00;5155750;27;20085;-84
2021/08/14 09:09:27;;;;;;;16.05;5.63;;;;;;;20.40;62.84;101729.50;5155768;27;20042;-83
2021/08/14 09:12:00;;;;;;;15.07;5.40;;;;;;;20.51;62.64;101730.59;5156533;27;20038;-84
2021/08/14 09:14:45;;;;;;;11.02;5.30;;;;;;;20.59;62.52;101723.00;5135091;27;20047;-83
2021/08/14 09:17:11;;;;;;;12.30;5.43;;;;;;;20.35;62.90;101723.66;5155649;27;20103;-84
2021/08/14 09:19:37;;;;;;;8.95;4.53;;;;;;;20.28;63.07;101701.97;5156245;27;20444;-84
2021/08/14 09:22:12;;;;;;;11.75;5.47;;;;;;;20.74;62.55;101722.06;5139824;27;20043;-83
2021/08/14 09:24:41;;;;;;;10.13;4.90;;;;;;;20.85;61.88;101721.38;5153837;27;20055;-83
2021/08/14 09:27:11;;;;;;;11.30;5.20;;;;;;;20.86;62.19;101714.25;5154796;27;20046;-83
2021/08/14 09:29:39;;;;;;;11.95;5.07;;;;;;;20.69;62.75;101710.88;5155192;27;20402;-83
2021/08/14 09:32:10;;;;;;;12.88;5.60;;;;;;;20.61;62.76;101708.69;5154297;27;20513;-84
2021/08/14 09:35:03;;;;;;;10.93;5.68;;;;;;;20.46;63.86;101713.19;5155888;27;20053;-85
2021/08/14 09:37:38;;;;;;;10.57;5.43;;;;;;;20.45;63.51;101708.84;5157360;27;20043;-84
2021/08/14 09:40:08;;;;;;;14.40;5.88;;;;;;;20.28;63.50;101658.69;5159263;27;20188;-84
2021/08/14 09:42:52;;;;;;;12.80;5.35;;;;;;;20.69;62.26;101684.34;5156845;27;20043;-84
2021/08/14 09:45:18;;;;;;;10.77;5.77;;;;;;;20.92;62.43;101698.78;5137384;27;20057;-87
2021/08/14 09:47:46;;;;;;;12.35;5.63;;;;;;;21.01;61.54;101681.38;5154372;27;20491;-84
2021/08/14 09:50:13;;;;;;;9.75;5.03;;;;;;;20.73;61.35;101650.53;5155045;27;20470;-85
2021/08/14 09:52:41;;;;;;;10.43;5.32;;;;;;;21.02;61.64;101690.19;5154446;27;20046;-86
2021/08/14 09:55:23;;;;;;;9.07;4.95;;;;;;;21.19;61.11;101702.34;5153163;27;20051;-85
2021/08/14 09:58:02;;;;;;;9.38;4.80;;;;;;;21.28;61.22;101699.91;5151080;27;20059;-86
2021/08/14 10:00:31;;;;;;;10.07;5.00;;;;;;;21.38;61.04;101681.53;5158786;27;20094;-85
2021/08/14 10:02:59;;;;;;;10.93;4.97;;;;;;;21.47;60.35;101629.59;5158823;27;20035;-86
2021/08/14 10:05:25;;;;;;;10.55;4.45;;;;;;;21.77;59.69;101694.03;5154933;27;20070;-85
2021/08/14 10:07:51;;;;;;;8.43;4.45;;;;;;;21.89;59.26;101695.81;5162794;27;20056;-85
2021/08/14 10:10:18;;;;;;;8.43;4.30;;;;;;;21.81;59.44;101692.84;5173807;27;20047;-86
2021/08/14 10:12:45;;;;;;;9.05;4.40;;;;;;;21.86;59.69;101690.69;5158146;27;20051;-86
2021/08/14 10:15:11;;;;;;;10.02;4.68;;;;;;;21.63;59.07;101671.94;5132947;28;20039;-84
2021/08/14 10:17:39;;;;;;;9.32;4.57;;;;;;;21.53;60.25;101705.34;5147136;27;20046;-87
2021/08/14 10:20:08;;;;;;;11.25;4.80;;;;;;;21.59;59.54;101676.59;5166179;27;20039;-88
2021/08/14 10:22:35;;;;;;;10.65;4.95;;;;;;;21.72;59.03;101673.91;5158962;27;20070;-84
2021/08/14 10:25:02;;;;;;;9.27;4.75;;;;;;;21.85;59.34;101708.47;5162064;27;20058;-85
2021/08/14 10:27:55;;;;;;;7.72;4.07;;;;;;;21.99;58.41;101696.03;5164124;27;20035;-86
2021/08/14 10:30:38;;;;;;;8.65;4.10;;;;;;;22.01;58.51;101681.66;5159296;27;20043;-84
2021/08/14 10:33:05;;;;;;;10.02;4.82;;;;;;;21.91;59.21;101689.44;5158407;27;20047;-84
2021/08/14 10:35:33;;;;;;;8.95;4.43;;;;;;;21.96;59.17;101691.78;5157779;27;20064;-85
2021/08/14 10:37:59;;;;;;;8.05;4.63;;;;;;;22.44;58.10;101692.84;5141119;27;20399;-85
2021/08/14 10:41:02;;;;;;;7.75;3.95;;;;;;;22.84;56.44;101687.25;5150018;27;20050;-85
2021/08/14 10:43:53;;;;;;;7.38;3.75;;;;;;;23.07;55.90;101679.34;5158505;27;20057;-83
2021/08/14 10:46:43;;;;;;;6.88;4.20;;;;;;;22.97;55.92;101680.03;5144804;27;20062;-85
2021/08/14 10:49:46;;;;;;;9.73;3.90;;;;;;;22.71;56.29;101674.00;5178077;27;20041;-81
2021/08/14 10:52:39;;;;;;;8.63;3.75;;;;;;;22.78;56.53;101671.75;5153694;27;20131;-82
2021/08/14 10:55:10;;;;;;;7.82;3.95;;;;;;;22.81;55.45;101653.72;5158370;27;20054;-84
2021/08/14 10:57:43;;;;;;;7.15;3.80;;;;;;;22.93;55.79;101686.53;5123523;27;20065;-83
2021/08/14 11:00:17;;;;;;;13.20;4.13;;;;;;;22.50;56.27;101679.09;5158446;27;20045;-83
2021/08/14 11:02:57;;;;;;;10.32;4.25;;;;;;;23.14;55.40;101665.44;5154748;27;20047;-82
2021/08/14 11:05:26;;;;;;;8.10;3.92;;;;;;;23.28;55.03;101669.75;5160047;27;20387;-82
2021/08/14 11:07:53;;;;;;;7.68;4.05;;;;;;;23.14;55.28;101669.91;5175663;27;20076;-83
2021/08/14 11:10:40;;;;;;;10.00;4.32;;;;;;;22.61;56.09;101657.88;5158681;27;20038;-82
2021/08/14 11:13:31;;;;;;;9.82;3.75;;;;;;;23.06;55.71;101666.97;5161544;27;20049;-82
2021/08/14 11:16:00;;;;;;;8.98;4.35;;;;;;;23.12;55.46;101663.84;5160320;27;20046;-82
2021/08/14 11:18:49;;;;;;;8.65;3.95;;;;;;;22.96;55.74;101664.16;5160418;27;20047;-83
2021/08/14 11:21:15;;;;;;;6.72;4.05;;;;;;;22.82;56.00;101641.25;5125511;27;20406;-81
2021/08/14 11:23:59;;;;;;;6.78;3.67;;;;;;;23.06;55.29;101656.31;5159528;27;20490;-82